createdAt,value
2018-05-02T00:00:01.717Z,94748.58
2018-05-02T00:02:30.727Z,94747.63
2018-05-02T00:04:59.227Z,94750.08
2018-05-02T00:07:27.612Z,94753.62
2018-05-02T00:09:56.030Z,94756.01
2018-05-02T00:12:24.531Z,94760.65
2018-05-02T00:14:52.912Z,94758.83
2018-05-02T00:17:21.341Z,94753.38
2018-05-02T00:19:49.813Z,94756.00
2018-05-02T00:22:18.208Z,94762.52
2018-05-02T00:24:46.551Z,94754.26
2018-05-02T00:27:14.993Z,94750.22
2018-05-02T00:29:43.349Z,94751.15
2018-05-02T00:32:11.710Z,94747.82
2018-05-02T00:34:40.069Z,94749.36
2018-05-02T00:37:08.468Z,94745.47
2018-05-02T00:39:36.938Z,94754.80
2018-05-02T00:42:05.319Z,94753.50
2018-05-02T00:44:33.802Z,94763.00
2018-05-02T00:47:02.158Z,94766.22
2018-05-02T00:49:30.547Z,94762.33
2018-05-02T00:51:58.917Z,94769.62
2018-05-02T00:54:27.268Z,94769.14
2018-05-02T00:56:55.633Z,94771.37
2018-05-02T00:59:24.011Z,94765.30
2018-05-02T01:01:52.392Z,94759.15
2018-05-02T01:04:20.813Z,94753.68
2018-05-02T01:06:49.178Z,94752.46
2018-05-02T01:09:17.624Z,94758.69
2018-05-02T01:11:46.037Z,94749.49
2018-05-02T01:14:14.484Z,94754.33
2018-05-02T01:16:42.876Z,94750.78
2018-05-02T01:19:11.290Z,94755.75
2018-05-02T01:21:39.723Z,94753.31
2018-05-02T01:24:08.087Z,94747.73
2018-05-02T01:26:36.477Z,94744.95
2018-05-02T01:29:04.892Z,94746.66
2018-05-02T01:31:33.301Z,94745.95
2018-05-02T01:34:01.749Z,94740.27
2018-05-02T01:36:30.169Z,94740.08
2018-05-02T01:38:58.562Z,94738.20
2018-05-02T01:41:26.981Z,94734.52
2018-05-02T01:43:55.381Z,94737.05
2018-05-02T01:46:23.788Z,94727.94
2018-05-02T01:49:03.994Z,94735.27
2018-05-02T01:54:07.174Z,94731.67
2018-05-02T01:56:35.605Z,94736.63
2018-05-02T01:59:03.967Z,94738.47
2018-05-02T02:01:32.329Z,94731.84
2018-05-02T02:04:00.687Z,94732.00
2018-05-02T02:06:29.054Z,94730.03
2018-05-02T02:08:57.414Z,94729.59
2018-05-02T02:11:25.853Z,94734.13
2018-05-02T02:13:54.236Z,94736.98
2018-05-02T02:16:22.606Z,94736.07
2018-05-02T02:18:50.989Z,94734.39
2018-05-02T02:21:19.503Z,94731.97
2018-05-02T02:23:47.820Z,94725.44
2018-05-02T02:26:16.185Z,94727.88
2018-05-02T02:28:44.646Z,94731.77
2018-05-02T02:31:13.017Z,94729.44
2018-05-02T02:33:41.450Z,94729.61
2018-05-02T02:36:09.792Z,94727.68
2018-05-02T02:38:38.176Z,94727.41
2018-05-02T02:41:06.568Z,94730.43
2018-05-02T02:43:35.077Z,94722.41
2018-05-02T02:46:03.455Z,94723.67
2018-05-02T02:48:31.842Z,94721.84
2018-05-02T02:51:00.273Z,94721.73
2018-05-02T02:53:28.682Z,94721.21
2018-05-02T02:55:57.135Z,94718.53
2018-05-02T02:58:25.554Z,94718.83
2018-05-02T03:00:54.049Z,94719.27
2018-05-02T03:03:22.449Z,94714.17
2018-05-02T03:05:50.835Z,94717.36
2018-05-02T03:08:19.274Z,94714.91
2018-05-02T03:10:47.689Z,94710.98
2018-05-02T03:13:16.208Z,94703.86
2018-05-02T03:15:44.618Z,94705.13
2018-05-02T03:18:13.013Z,94696.80
2018-05-02T03:20:41.410Z,94694.09
2018-05-02T03:23:09.790Z,94697.89
2018-05-02T03:25:38.290Z,94698.58
2018-05-02T03:28:06.661Z,94702.59
2018-05-02T03:30:35.097Z,94706.73
2018-05-02T03:33:03.546Z,94710.00
2018-05-02T03:35:31.974Z,94711.89
2018-05-02T03:38:00.380Z,94715.98
2018-05-02T03:40:29.038Z,94718.16
2018-05-02T03:42:57.824Z,94726.60
2018-05-02T03:45:26.653Z,94721.30
2018-05-02T03:47:55.283Z,94724.34
2018-05-02T03:50:24.082Z,94725.47
2018-05-02T03:52:52.601Z,94718.87
2018-05-02T03:55:21.249Z,94721.38
2018-05-02T03:57:49.947Z,94714.75
2018-05-02T04:00:30.567Z,94711.94
2018-05-02T04:03:10.678Z,94705.37
2018-05-02T04:05:51.094Z,94707.04
2018-05-02T04:08:19.555Z,94712.73
2018-05-02T04:10:47.945Z,94719.82
2018-05-02T04:13:16.342Z,94722.19
2018-05-02T04:15:44.718Z,94721.74
2018-05-02T04:18:13.166Z,94721.21
2018-05-02T04:20:41.585Z,94720.77
2018-05-02T04:23:10.039Z,94725.02
2018-05-02T04:25:38.484Z,94737.11
2018-05-02T04:28:06.947Z,94729.42
2018-05-02T04:30:35.431Z,94731.23
2018-05-02T04:33:03.810Z,94731.62
2018-05-02T04:35:32.301Z,94734.06
2018-05-02T04:38:00.669Z,94733.80
2018-05-02T04:40:29.106Z,94731.23
2018-05-02T04:42:57.494Z,94733.00
2018-05-02T04:45:25.907Z,94739.03
2018-05-02T04:47:54.335Z,94741.84
2018-05-02T04:50:22.718Z,94732.27
2018-05-02T04:52:51.125Z,94736.19
2018-05-02T04:55:19.557Z,94732.98
2018-05-02T04:57:47.989Z,94738.26
2018-05-02T05:00:16.415Z,94735.00
2018-05-02T05:02:44.844Z,94734.81
2018-05-02T05:05:13.326Z,94735.68
2018-05-02T05:07:41.751Z,94732.64
2018-05-02T05:10:10.185Z,94732.56
2018-05-02T05:12:38.568Z,94725.56
2018-05-02T05:15:07.675Z,94721.95
2018-05-02T05:17:36.052Z,94729.25
2018-05-02T05:20:04.490Z,94729.31
2018-05-02T05:22:32.933Z,94735.75
2018-05-02T05:25:01.307Z,94738.73
2018-05-02T05:27:29.727Z,94739.87
2018-05-02T05:29:58.121Z,94742.93
2018-05-02T05:32:26.532Z,94731.62
2018-05-02T05:34:54.925Z,94730.23
2018-05-02T05:37:23.543Z,94735.81
2018-05-02T05:39:51.971Z,94731.30
2018-05-02T05:42:21.525Z,94732.00
2018-05-02T05:44:49.949Z,94726.94
2018-05-02T05:47:18.369Z,94729.76
2018-05-02T05:49:46.862Z,94726.05
2018-05-02T05:52:15.282Z,94730.66
2018-05-02T05:54:43.728Z,94733.74
2018-05-02T05:57:12.208Z,94727.16
2018-05-02T05:59:40.606Z,94731.64
2018-05-02T06:02:09.106Z,94719.87
2018-05-02T06:04:37.563Z,94727.39
2018-05-02T06:07:05.953Z,94729.48
2018-05-02T06:09:34.358Z,94730.99
2018-05-02T06:12:02.770Z,94733.70
2018-05-02T06:14:31.389Z,94727.64
2018-05-02T06:16:59.806Z,94727.55
2018-05-02T06:19:28.232Z,94724.06
2018-05-02T06:21:56.679Z,94724.47
2018-05-02T06:24:25.112Z,94730.66
2018-05-02T06:26:53.573Z,94727.30
2018-05-02T06:29:22.993Z,94726.27
2018-05-02T06:31:51.522Z,94723.20
2018-05-02T06:34:19.854Z,94727.88
2018-05-02T06:36:48.265Z,94720.49
2018-05-02T06:39:16.661Z,94718.48
2018-05-02T06:41:45.062Z,94710.79
2018-05-02T06:44:13.520Z,94715.80
2018-05-02T06:46:41.904Z,94725.45
2018-05-02T06:49:10.379Z,94723.90
2018-05-02T06:51:38.834Z,94715.31
2018-05-02T06:54:08.029Z,94716.12
2018-05-02T06:56:36.425Z,94725.24
2018-05-02T06:59:04.956Z,94724.63
2018-05-02T07:01:33.325Z,94719.55
2018-05-02T07:04:01.709Z,94726.29
2018-05-02T07:06:30.116Z,94727.49
2018-05-02T07:08:58.734Z,94731.81
2018-05-02T07:11:27.189Z,94727.84
2018-05-02T07:13:56.160Z,94728.94
2018-05-02T07:16:25.402Z,94743.59
2018-05-02T07:18:53.906Z,94737.11
2018-05-02T07:21:22.312Z,94743.45
2018-05-02T07:23:50.699Z,94738.56
2018-05-02T07:26:19.113Z,94734.96
2018-05-02T07:28:47.484Z,94731.99
2018-05-02T07:31:15.881Z,94745.28
2018-05-02T07:33:44.381Z,94735.80
2018-05-02T07:36:12.886Z,94735.91
2018-05-02T07:38:41.336Z,94741.11
2018-05-02T07:41:09.760Z,94729.78
2018-05-02T07:43:38.189Z,94738.54
2018-05-02T07:46:06.601Z,94741.23
2018-05-02T07:48:35.844Z,94743.25
2018-05-02T07:51:04.264Z,94744.14
2018-05-02T07:53:32.689Z,94750.81
2018-05-02T07:56:01.091Z,94746.60
2018-05-02T07:58:29.552Z,94758.79
2018-05-02T08:00:57.971Z,94749.77
2018-05-02T08:03:26.389Z,94755.12
2018-05-02T08:05:54.868Z,94749.70
2018-05-02T08:08:23.281Z,94754.64
2018-05-02T08:10:51.732Z,94750.55
2018-05-02T08:13:20.194Z,94731.94
2018-05-02T08:15:48.614Z,94729.52
2018-05-02T08:18:17.011Z,94721.31
2018-05-02T08:20:45.498Z,94722.66
2018-05-02T08:23:13.886Z,94719.64
2018-05-02T08:25:42.294Z,94712.36
2018-05-02T08:28:10.737Z,94707.84
2018-05-02T08:30:39.199Z,94698.09
2018-05-02T08:33:07.674Z,94691.67
2018-05-02T08:35:36.068Z,94700.78
2018-05-02T08:38:04.729Z,94695.20
2018-05-02T08:40:33.185Z,94702.66
2018-05-02T08:45:38.018Z,94697.09
2018-05-02T08:48:12.085Z,94694.48
2018-05-02T08:50:40.966Z,94698.01
2018-05-02T08:53:09.697Z,94693.00
2018-05-02T08:55:38.220Z,94687.18
2018-05-02T08:58:06.719Z,94683.24
2018-05-02T09:00:35.225Z,94687.28
2018-05-02T09:03:03.643Z,94685.84
2018-05-02T09:05:32.259Z,94681.20
2018-05-02T09:08:00.705Z,94683.30
2018-05-02T09:10:29.143Z,94678.31
2018-05-02T09:12:57.583Z,94673.00
2018-05-02T09:15:26.511Z,94671.64
2018-05-02T09:17:54.952Z,94676.65
2018-05-02T09:20:23.348Z,94682.19
2018-05-02T09:22:51.722Z,94681.50
2018-05-02T09:25:20.120Z,94669.06
2018-05-02T09:27:48.597Z,94671.20
2018-05-02T09:30:16.982Z,94666.48
2018-05-02T09:32:45.393Z,94664.00
2018-05-02T09:35:13.854Z,94666.73
2018-05-02T09:37:44.923Z,94660.00
2018-05-02T09:40:14.877Z,94655.98
2018-05-02T09:42:43.342Z,94659.61
2018-05-02T09:45:11.714Z,94648.69
2018-05-02T09:47:40.943Z,94650.72
2018-05-02T09:50:09.297Z,94652.83
2018-05-02T09:52:37.704Z,94647.77
2018-05-02T09:55:06.092Z,94647.74
2018-05-02T09:57:34.546Z,94651.52
2018-05-02T10:00:02.960Z,94652.95
2018-05-02T10:02:31.327Z,94658.09
2018-05-02T10:04:59.767Z,94650.95
2018-05-02T10:07:28.190Z,94653.46
2018-05-02T10:09:56.534Z,94653.34
2018-05-02T10:12:24.928Z,94646.39
2018-05-02T10:14:54.162Z,94643.36
2018-05-02T10:17:22.615Z,94639.63
2018-05-02T10:19:51.065Z,94644.61
2018-05-02T10:22:19.543Z,94642.69
2018-05-02T10:24:48.036Z,94654.97
2018-05-02T10:27:16.489Z,94649.25
2018-05-02T10:29:44.977Z,94649.49
2018-05-02T10:32:13.583Z,94646.55
2018-05-02T10:34:41.974Z,94647.06
2018-05-02T10:37:10.462Z,94647.33
2018-05-02T10:39:38.904Z,94643.16
2018-05-02T10:42:07.318Z,94637.52
2018-05-02T10:44:35.790Z,94640.06
2018-05-02T10:47:04.219Z,94637.61
2018-05-02T10:49:32.770Z,94639.67
2018-05-02T10:52:01.282Z,94640.45
2018-05-02T10:54:29.701Z,94642.80
2018-05-02T10:56:58.178Z,94640.12
2018-05-02T10:59:26.601Z,94645.84
2018-05-02T11:01:54.985Z,94645.72
2018-05-02T11:04:23.486Z,94639.17
2018-05-02T11:06:51.891Z,94640.45
2018-05-02T11:09:20.281Z,94629.03
2018-05-02T11:11:48.720Z,94633.55
2018-05-02T11:14:17.148Z,94640.53
2018-05-02T11:16:45.560Z,94635.09
2018-05-02T11:19:14.041Z,94632.93
2018-05-02T11:21:42.466Z,94628.84
2018-05-02T11:24:10.878Z,94634.65
2018-05-02T11:26:39.367Z,94628.02
2018-05-02T11:29:07.857Z,94627.95
2018-05-02T11:31:36.334Z,94622.37
2018-05-02T11:34:04.724Z,94619.96
2018-05-02T11:36:33.124Z,94618.44
2018-05-02T11:39:01.609Z,94615.39
2018-05-02T11:41:36.214Z,94604.93
2018-05-02T11:44:05.474Z,94609.09
2018-05-02T11:46:33.881Z,94612.23
2018-05-02T11:49:02.279Z,94601.16
2018-05-02T11:51:30.693Z,94596.56
2018-05-02T11:53:59.115Z,94592.90
2018-05-02T11:56:27.549Z,94595.46
2018-05-02T11:58:55.964Z,94592.06
2018-05-02T12:01:24.369Z,94598.41
2018-05-02T12:03:52.761Z,94600.56
2018-05-02T12:06:21.207Z,94596.97
2018-05-02T12:08:49.796Z,94592.27
2018-05-02T12:11:18.179Z,94599.12
2018-05-02T12:13:46.764Z,94591.72
2018-05-02T12:16:15.377Z,94592.29
2018-05-02T12:18:43.747Z,94591.64
2018-05-02T12:21:12.105Z,94595.03
2018-05-02T12:23:40.640Z,94586.24
2018-05-02T12:26:09.106Z,94583.80
2018-05-02T12:28:37.741Z,94588.38
2018-05-02T12:31:06.173Z,94584.45
2018-05-02T12:33:34.684Z,94574.34
2018-05-02T12:36:03.140Z,94572.84
2018-05-02T12:38:31.625Z,94571.89
2018-05-02T12:41:00.069Z,94561.08
2018-05-02T12:43:28.692Z,94560.98
2018-05-02T12:45:57.331Z,94556.80
2018-05-02T12:48:25.794Z,94560.85
2018-05-02T12:50:54.277Z,94553.42
2018-05-02T12:53:22.722Z,94556.89
2018-05-02T12:55:51.215Z,94548.69
2018-05-02T12:58:19.785Z,94548.97
2018-05-02T13:00:48.327Z,94540.17
2018-05-02T13:03:17.317Z,94543.87
2018-05-02T13:05:46.026Z,94544.97
2018-05-02T13:08:14.584Z,94544.92
2018-05-02T13:10:43.152Z,94546.35
2018-05-02T13:13:14.403Z,94541.11
2018-05-02T13:15:42.915Z,94542.84
2018-05-02T13:18:13.006Z,94539.38
2018-05-02T13:20:41.488Z,94535.80
2018-05-02T13:23:10.182Z,94538.99
2018-05-02T13:25:38.601Z,94530.20
2018-05-02T13:28:07.016Z,94533.16
2018-05-02T13:33:09.769Z,94516.65
2018-05-02T13:35:38.966Z,94519.30
2018-05-02T13:38:07.397Z,94513.92
2018-05-02T13:40:35.857Z,94512.67
2018-05-02T13:43:04.354Z,94513.40
2018-05-02T13:45:32.863Z,94505.83
2018-05-02T13:48:01.353Z,94489.52
2018-05-02T13:50:29.804Z,94492.38
2018-05-02T13:52:58.255Z,94496.92
2018-05-02T13:55:26.687Z,94482.98
2018-05-02T13:57:55.304Z,94474.09
2018-05-02T14:00:23.778Z,94472.64
2018-05-02T14:02:52.243Z,94476.95
2018-05-02T14:05:20.704Z,94473.63
2018-05-02T14:07:49.264Z,94464.52
2018-05-02T14:10:17.726Z,94466.48
2018-05-02T14:12:46.218Z,94470.00
2018-05-02T14:15:14.726Z,94468.01
2018-05-02T14:17:43.144Z,94474.69
2018-05-02T14:20:11.608Z,94469.31
2018-05-02T14:22:40.015Z,94459.70
2018-05-02T14:25:08.428Z,94462.08
2018-05-02T14:27:36.874Z,94463.61
2018-05-02T14:30:05.283Z,94467.30
2018-05-02T14:32:33.753Z,94464.67
2018-05-02T14:35:02.205Z,94460.50
2018-05-02T14:37:30.614Z,94458.97
2018-05-02T14:39:59.057Z,94459.73
2018-05-02T14:42:27.473Z,94458.95
2018-05-02T14:44:55.893Z,94456.77
2018-05-02T14:47:24.326Z,94457.48
2018-05-02T14:49:52.725Z,94456.01
2018-05-02T14:52:21.107Z,94457.19
2018-05-02T14:54:49.535Z,94460.34
2018-05-02T14:57:17.995Z,94454.99
2018-05-02T14:59:46.485Z,94461.27
2018-05-02T15:02:14.927Z,94457.23
2018-05-02T15:04:43.258Z,94459.95
2018-05-02T15:07:11.809Z,94453.50
2018-05-02T15:09:40.187Z,94466.64
2018-05-02T15:12:31.136Z,94469.58
2018-05-02T15:14:59.515Z,94456.80
2018-05-02T15:17:27.881Z,94460.92
2018-05-02T15:19:56.343Z,94458.20
2018-05-02T15:22:24.754Z,94455.67
2018-05-02T15:24:53.127Z,94452.23
2018-05-02T15:27:21.886Z,94460.18
2018-05-02T15:29:50.318Z,94460.09
2018-05-02T15:32:18.894Z,94462.60
2018-05-02T15:34:47.348Z,94461.13
2018-05-02T15:37:15.773Z,94459.82
2018-05-02T15:39:45.235Z,94460.23
2018-05-02T15:42:13.712Z,94461.63
2018-05-02T15:44:42.192Z,94457.09
2018-05-02T15:47:10.615Z,94460.63
2018-05-02T15:49:39.071Z,94460.27
2018-05-02T15:52:07.520Z,94460.23
2018-05-02T15:54:46.282Z,94458.52
2018-05-02T15:57:15.681Z,94454.70
2018-05-02T15:59:44.172Z,94464.80
2018-05-02T16:02:12.582Z,94461.47
2018-05-02T16:04:45.976Z,94459.12
2018-05-02T16:07:14.460Z,94456.94
2018-05-02T16:09:42.860Z,94454.05
2018-05-02T16:12:11.264Z,94454.67
2018-05-02T16:14:39.664Z,94463.65
2018-05-02T16:17:09.055Z,94464.83
2018-05-02T16:19:37.594Z,94463.36
2018-05-02T16:22:06.017Z,94467.30
2018-05-02T16:24:34.393Z,94467.44
2018-05-02T16:27:02.815Z,94467.70
2018-05-02T16:29:31.252Z,94464.95
2018-05-02T16:31:59.800Z,94465.63
2018-05-02T16:34:28.225Z,94465.45
2018-05-02T16:36:56.610Z,94456.44
2018-05-02T16:39:25.103Z,94441.79
2018-05-02T16:41:53.534Z,94447.11
2018-05-02T16:44:22.056Z,94451.53
2018-05-02T16:46:50.875Z,94446.03
2018-05-02T16:49:19.258Z,94448.25
2018-05-02T16:51:47.818Z,94446.43
2018-05-02T16:54:16.261Z,94447.19
2018-05-02T16:56:44.688Z,94451.08
2018-05-02T16:59:13.063Z,94451.97
2018-05-02T17:01:41.436Z,94451.48
2018-05-02T17:04:13.675Z,94450.33
2018-05-02T17:06:43.002Z,94452.59
2018-05-02T17:09:11.437Z,94452.34
2018-05-02T17:11:41.115Z,94451.36
2018-05-02T17:14:10.604Z,94451.97
2018-05-02T17:16:42.325Z,94447.81
2018-05-02T17:19:11.337Z,94454.33
2018-05-02T17:21:39.768Z,94447.98
2018-05-02T17:24:08.601Z,94445.95
2018-05-02T17:26:39.363Z,94443.61
2018-05-02T17:29:07.861Z,94449.27
2018-05-02T17:31:36.376Z,94444.59
2018-05-02T17:34:04.801Z,94443.94
2018-05-02T17:36:34.823Z,94449.73
2018-05-02T17:39:03.241Z,94445.44
2018-05-02T17:41:31.667Z,94442.41
2018-05-02T17:44:00.091Z,94451.38
2018-05-02T17:46:28.716Z,94445.23
2018-05-02T17:48:57.646Z,94452.78
2018-05-02T17:51:26.109Z,94446.45
2018-05-02T17:53:54.625Z,94448.20
2018-05-02T17:56:23.054Z,94441.88
2018-05-02T17:58:52.977Z,94443.68
2018-05-02T18:01:21.430Z,94446.67
2018-05-02T18:03:49.922Z,94448.84
2018-05-02T18:06:18.398Z,94453.02
2018-05-02T18:08:46.885Z,94457.32
2018-05-02T18:11:15.315Z,94455.92
2018-05-02T18:13:43.816Z,94457.09
2018-05-02T18:16:12.433Z,94456.59
2018-05-02T18:18:41.725Z,94457.63
2018-05-02T18:21:10.198Z,94458.66
2018-05-02T18:23:38.637Z,94463.11
2018-05-02T18:26:07.180Z,94457.23
2018-05-02T18:28:35.658Z,94456.44
2018-05-02T18:31:04.068Z,94458.36
2018-05-02T18:33:32.976Z,94472.28
2018-05-02T18:36:01.410Z,94472.38
2018-05-02T18:38:29.917Z,94482.09
2018-05-02T18:40:58.337Z,94472.95
2018-05-02T18:43:26.791Z,94477.68
2018-05-02T18:45:57.072Z,94478.25
2018-05-02T18:48:25.415Z,94488.73
2018-05-02T18:50:53.774Z,94486.58
2018-05-02T18:53:22.313Z,94487.24
2018-05-02T18:55:50.746Z,94477.64
2018-05-02T18:58:19.164Z,94481.69
2018-05-02T19:00:47.558Z,94473.30
2018-05-02T19:03:16.591Z,94479.30
2018-05-02T19:05:44.984Z,94478.22
2018-05-02T19:08:13.416Z,94481.58
2018-05-02T19:10:41.797Z,94476.03
2018-05-02T19:13:10.204Z,94483.30
2018-05-02T19:15:38.573Z,94487.15
2018-05-02T19:18:12.454Z,94492.27
2018-05-02T19:20:40.856Z,94491.63
2018-05-02T19:23:09.247Z,94493.38
2018-05-02T19:25:43.253Z,94496.94
2018-05-02T19:28:13.201Z,94498.05
2018-05-02T19:30:41.928Z,94502.78
2018-05-02T19:33:20.933Z,94504.20
2018-05-02T19:35:49.320Z,94506.59
2018-05-02T19:38:17.731Z,94505.91
2018-05-02T19:40:51.806Z,94509.83
2018-05-02T19:43:25.742Z,94511.71
2018-05-02T19:45:54.119Z,94515.27
2018-05-02T19:48:22.568Z,94510.10
2018-05-02T19:50:56.817Z,94507.81
2018-05-02T19:53:25.270Z,94507.37
2018-05-02T19:55:53.681Z,94505.41
2018-05-02T19:58:22.461Z,94507.72
2018-05-02T20:00:56.515Z,94504.26
2018-05-02T20:03:24.920Z,94505.98
2018-05-02T20:05:53.361Z,94503.51
2018-05-02T20:08:28.077Z,94505.33
2018-05-02T20:11:01.997Z,94508.66
2018-05-02T20:13:41.097Z,94512.86
2018-05-02T20:16:09.621Z,94517.53
2018-05-02T20:18:38.248Z,94518.41
2018-05-02T20:21:08.698Z,94512.58
2018-05-02T20:23:37.300Z,94514.63
2018-05-02T20:26:05.756Z,94512.02
2018-05-02T20:28:34.229Z,94516.41
2018-05-02T20:31:03.548Z,94519.78
2018-05-02T20:33:34.166Z,94526.81
2018-05-02T20:36:02.817Z,94528.37
2018-05-02T20:38:31.469Z,94529.09
2018-05-02T20:40:59.869Z,94528.77
2018-05-02T20:43:28.366Z,94528.17
2018-05-02T20:45:56.807Z,94532.88
2018-05-02T20:48:25.207Z,94533.42
2018-05-02T20:50:54.485Z,94526.80
2018-05-02T20:53:22.893Z,94529.37
2018-05-02T20:55:51.302Z,94521.30
2018-05-02T20:58:19.691Z,94516.64
2018-05-02T21:00:48.095Z,94523.13
2018-05-02T21:03:16.590Z,94518.12
2018-05-02T21:05:44.991Z,94518.78
2018-05-02T21:08:13.455Z,94518.70
2018-05-02T21:10:41.912Z,94518.85
2018-05-02T21:13:10.297Z,94524.50
2018-05-02T21:15:38.742Z,94519.09
2018-05-02T21:18:07.170Z,94520.53
2018-05-02T21:20:35.704Z,94520.59
2018-05-02T21:23:04.096Z,94512.71
2018-05-02T21:25:32.508Z,94517.61
2018-05-02T21:28:00.944Z,94516.05
2018-05-02T21:30:29.409Z,94520.32
2018-05-02T21:32:57.770Z,94520.52
2018-05-02T21:35:26.160Z,94518.22
2018-05-02T21:37:54.523Z,94519.41
2018-05-02T21:40:22.901Z,94531.20
2018-05-02T21:42:51.349Z,94531.60
2018-05-02T21:45:19.707Z,94533.05
2018-05-02T21:47:48.140Z,94527.22
2018-05-02T21:50:16.545Z,94527.94
2018-05-02T21:52:44.958Z,94534.89
2018-05-02T21:55:13.304Z,94532.15
2018-05-02T21:57:41.753Z,94531.45
2018-05-02T22:00:10.140Z,94542.83
2018-05-02T22:02:38.537Z,94545.87
2018-05-02T22:05:06.913Z,94537.59
2018-05-02T22:07:35.375Z,94547.28
2018-05-02T22:10:03.800Z,94540.61
2018-05-02T22:12:32.192Z,94544.08
2018-05-02T22:15:00.596Z,94547.83
2018-05-02T22:17:29.016Z,94548.48
2018-05-02T22:19:57.485Z,94553.19
2018-05-02T22:22:27.927Z,94550.41
2018-05-02T22:24:56.517Z,94550.05
2018-05-02T22:27:24.981Z,94551.83
2018-05-02T22:29:53.404Z,94544.63
2018-05-02T22:32:21.845Z,94545.94
2018-05-02T22:34:50.288Z,94544.82
2018-05-02T22:37:18.787Z,94545.02
2018-05-02T22:39:47.172Z,94548.98
2018-05-02T22:42:15.650Z,94550.36
2018-05-02T22:44:44.124Z,94551.95
2018-05-02T22:47:12.559Z,94556.10
2018-05-02T22:49:40.942Z,94548.98
2018-05-02T22:52:09.295Z,94551.80
2018-05-02T22:54:37.697Z,94536.02
2018-05-02T22:57:06.101Z,94539.01
2018-05-02T22:59:34.560Z,94533.11
2018-05-02T23:02:02.981Z,94529.51
2018-05-02T23:04:31.406Z,94523.17
2018-05-02T23:06:59.763Z,94526.84
2018-05-02T23:09:28.112Z,94515.83
2018-05-02T23:11:56.496Z,94513.75
2018-05-02T23:14:24.930Z,94509.92
2018-05-02T23:16:53.284Z,94513.45
2018-05-02T23:19:21.724Z,94510.52
2018-05-02T23:21:50.076Z,94518.25
2018-05-02T23:24:18.425Z,94514.08
2018-05-02T23:26:46.864Z,94521.90
2018-05-02T23:29:15.256Z,94516.08
2018-05-02T23:31:43.609Z,94516.03
2018-05-02T23:34:12.120Z,94517.67
2018-05-02T23:36:40.504Z,94511.07
2018-05-02T23:39:08.904Z,94513.19
2018-05-02T23:41:37.277Z,94503.03
2018-05-02T23:44:05.742Z,94499.29
2018-05-02T23:46:34.208Z,94499.27
2018-05-02T23:49:02.539Z,94500.03
2018-05-02T23:51:30.903Z,94498.03
2018-05-02T23:53:59.288Z,94505.02
2018-05-02T23:56:27.649Z,94507.34
2018-05-02T23:58:55.984Z,94509.02
